createdAt,value
2018-06-17T00:00:45.450Z,22.67
2018-06-17T00:03:13.499Z,22.59
2018-06-17T00:05:42.231Z,22.48
2018-06-17T00:08:10.493Z,22.56
2018-06-17T00:10:38.533Z,22.53
2018-06-17T00:13:06.805Z,22.56
2018-06-17T00:15:35.335Z,22.28
2018-06-17T00:18:03.514Z,22.29
2018-06-17T00:20:31.621Z,22.44
2018-06-17T00:22:59.827Z,22.47
2018-06-17T00:25:28.012Z,22.10
2018-06-17T00:27:56.212Z,22.22
2018-06-17T00:30:24.571Z,22.09
2018-06-17T00:32:53.006Z,22.15
2018-06-17T00:35:21.316Z,22.00
2018-06-17T00:37:49.505Z,22.01
2018-06-17T00:40:17.675Z,22.11
2018-06-17T00:42:46.675Z,22.01
2018-06-17T00:45:14.752Z,21.87
2018-06-17T00:47:42.834Z,22.00
2018-06-17T00:50:10.885Z,21.99
2018-06-17T00:52:38.991Z,21.79
2018-06-17T00:55:07.107Z,21.92
2018-06-17T00:57:45.636Z,21.87
2018-06-17T01:00:13.921Z,21.87
2018-06-17T01:02:42.392Z,21.75
2018-06-17T01:05:10.575Z,21.57
2018-06-17T01:07:38.657Z,21.56
2018-06-17T01:10:06.852Z,21.45
2018-06-17T01:12:35.561Z,21.62
2018-06-17T01:15:04.860Z,21.57
2018-06-17T01:17:35.443Z,21.49
2018-06-17T01:20:03.719Z,21.35
2018-06-17T01:22:32.732Z,21.30
2018-06-17T01:25:00.985Z,21.23
2018-06-17T01:27:29.086Z,21.20
2018-06-17T01:29:57.353Z,21.39
2018-06-17T01:32:25.425Z,21.58
2018-06-17T01:34:53.523Z,21.64
2018-06-17T01:37:21.829Z,21.71
2018-06-17T01:39:49.884Z,21.58
2018-06-17T01:42:18.022Z,21.23
2018-06-17T01:44:46.185Z,21.09
2018-06-17T01:47:14.303Z,21.24
2018-06-17T01:49:42.550Z,21.31
2018-06-17T01:52:10.613Z,21.46
2018-06-17T01:54:38.684Z,21.29
2018-06-17T01:57:06.760Z,21.30
2018-06-17T01:59:35.883Z,21.20
2018-06-17T02:02:03.928Z,21.13
2018-06-17T02:04:37.330Z,20.96
2018-06-17T02:09:14.135Z,20.85
2018-06-17T02:11:49.407Z,20.83
2018-06-17T02:14:22.973Z,20.97
2018-06-17T02:16:51.020Z,21.01
2018-06-17T02:19:19.431Z,20.84
2018-06-17T02:21:47.616Z,20.76
2018-06-17T02:24:16.039Z,20.68
2018-06-17T02:26:44.110Z,20.74
2018-06-17T02:29:12.150Z,21.01
2018-06-17T02:31:40.455Z,21.13
2018-06-17T02:34:08.649Z,21.18
2018-06-17T02:36:36.710Z,21.15
2018-06-17T02:39:06.786Z,21.08
2018-06-17T02:41:36.377Z,21.18
2018-06-17T02:44:04.595Z,21.07
2018-06-17T02:46:38.351Z,20.95
2018-06-17T02:49:12.228Z,21.02
2018-06-17T02:51:45.759Z,20.92
2018-06-17T02:54:19.189Z,20.92
2018-06-17T02:56:47.247Z,20.95
2018-06-17T02:59:15.572Z,20.89
2018-06-17T03:01:44.529Z,20.94
2018-06-17T03:04:12.680Z,20.78
2018-06-17T03:06:40.813Z,20.65
2018-06-17T03:09:09.926Z,20.74
2018-06-17T03:11:38.642Z,20.72
2018-06-17T03:14:07.297Z,20.83
2018-06-17T03:16:36.594Z,20.96
2018-06-17T03:19:05.029Z,21.00
2018-06-17T03:21:33.198Z,20.91
2018-06-17T03:24:01.346Z,20.95
2018-06-17T03:26:34.751Z,20.78
2018-06-17T03:29:08.156Z,20.70
2018-06-17T03:31:41.686Z,20.77
2018-06-17T03:34:09.983Z,20.76
2018-06-17T03:36:38.172Z,20.70
2018-06-17T03:39:07.938Z,21.05
2018-06-17T03:41:36.753Z,20.49
2018-06-17T03:44:04.919Z,20.36
2018-06-17T03:46:33.005Z,20.38
2018-06-17T03:49:01.123Z,20.02
2018-06-17T03:51:29.239Z,20.11
2018-06-17T03:53:57.433Z,20.22
2018-06-17T03:56:25.634Z,20.37
2018-06-17T03:58:54.282Z,20.61
2018-06-17T04:01:22.446Z,21.00
2018-06-17T04:03:50.521Z,20.83
2018-06-17T04:06:18.641Z,20.49
2018-06-17T04:08:46.841Z,20.51
2018-06-17T04:11:14.956Z,20.40
2018-06-17T04:13:43.119Z,20.56
2018-06-17T04:16:11.204Z,20.16
2018-06-17T04:18:39.467Z,20.32
2018-06-17T04:21:07.626Z,20.03
2018-06-17T04:23:36.723Z,20.44
2018-06-17T04:26:04.891Z,20.24
2018-06-17T04:28:32.971Z,20.02
2018-06-17T04:31:01.072Z,20.22
2018-06-17T04:33:29.159Z,20.02
2018-06-17T04:35:57.298Z,20.22
2018-06-17T04:38:25.872Z,20.01
2018-06-17T04:40:54.051Z,20.03
2018-06-17T04:43:22.212Z,19.87
2018-06-17T04:45:50.351Z,19.73
2018-06-17T04:48:18.464Z,20.00
2018-06-17T04:50:46.929Z,19.74
2018-06-17T04:53:15.139Z,19.76
2018-06-17T04:55:43.291Z,19.88
2018-06-17T04:58:11.498Z,20.14
2018-06-17T05:00:39.768Z,20.11
2018-06-17T05:03:07.813Z,19.79
2018-06-17T05:05:36.964Z,19.80
2018-06-17T05:08:05.361Z,20.12
2018-06-17T05:10:33.567Z,20.02
2018-06-17T05:13:01.800Z,20.00
2018-06-17T05:15:29.855Z,20.06
2018-06-17T05:17:57.934Z,20.14
2018-06-17T05:20:26.048Z,20.09
2018-06-17T05:22:54.092Z,20.12
2018-06-17T05:25:22.309Z,20.09
2018-06-17T05:27:50.386Z,19.98
2018-06-17T05:30:18.507Z,20.22
2018-06-17T05:32:46.614Z,20.33
2018-06-17T05:35:14.733Z,20.41
2018-06-17T05:37:42.962Z,20.44
2018-06-17T05:40:11.081Z,20.36
2018-06-17T05:42:39.307Z,20.20
2018-06-17T05:45:07.435Z,20.39
2018-06-17T05:47:35.563Z,20.32
2018-06-17T05:50:03.630Z,20.34
2018-06-17T05:52:31.761Z,20.58
2018-06-17T05:55:00.018Z,20.29
2018-06-17T05:57:28.096Z,20.60
2018-06-17T05:59:56.181Z,20.52
2018-06-17T06:02:24.253Z,20.83
2018-06-17T06:04:52.344Z,20.74
2018-06-17T06:07:20.404Z,20.65
2018-06-17T06:09:48.478Z,20.76
2018-06-17T06:12:16.612Z,20.78
2018-06-17T06:14:44.858Z,21.00
2018-06-17T06:17:13.050Z,20.96
2018-06-17T06:19:41.234Z,21.07
2018-06-17T06:22:09.433Z,21.36
2018-06-17T06:24:37.640Z,21.21
2018-06-17T06:27:05.724Z,21.49
2018-06-17T06:29:33.898Z,21.53
2018-06-17T06:32:01.995Z,21.86
2018-06-17T06:34:30.095Z,21.95
2018-06-17T06:36:58.326Z,22.13
2018-06-17T06:39:28.569Z,22.28
2018-06-17T06:41:56.622Z,21.98
2018-06-17T06:44:24.674Z,22.20
2018-06-17T06:46:52.783Z,22.12
2018-06-17T06:49:20.854Z,22.02
2018-06-17T06:51:48.931Z,22.10
2018-06-17T06:54:17.025Z,21.99
2018-06-17T06:56:45.091Z,22.09
2018-06-17T06:59:13.171Z,21.89
2018-06-17T07:01:52.587Z,21.72
2018-06-17T07:04:32.007Z,21.73
2018-06-17T07:07:11.552Z,21.81
2018-06-17T07:09:51.133Z,21.58
2018-06-17T07:12:19.182Z,21.66
2018-06-17T07:14:47.302Z,22.02
2018-06-17T07:17:26.725Z,21.95
2018-06-17T07:19:54.822Z,22.00
2018-06-17T07:22:22.905Z,22.23
2018-06-17T07:24:51.127Z,22.17
2018-06-17T07:27:30.659Z,21.84
2018-06-17T07:29:58.743Z,22.22
2018-06-17T07:32:26.856Z,21.94
2018-06-17T07:34:54.902Z,21.98
2018-06-17T07:37:23.019Z,22.22
2018-06-17T07:40:56.318Z,22.26
2018-06-17T07:43:24.531Z,22.32
2018-06-17T07:45:52.621Z,22.25
2018-06-17T07:49:36.019Z,22.59
2018-06-17T07:52:16.579Z,22.75
2018-06-17T07:54:45.063Z,22.43
2018-06-17T07:57:14.380Z,22.58
2018-06-17T07:59:42.472Z,22.39
2018-06-17T08:02:12.439Z,22.44
2018-06-17T08:04:40.700Z,22.79
2018-06-17T08:07:08.989Z,22.81
2018-06-17T08:09:37.928Z,22.91
2018-06-17T08:12:06.171Z,22.96
2018-06-17T08:14:34.313Z,23.04
2018-06-17T08:17:02.444Z,22.99
2018-06-17T08:19:30.783Z,22.91
2018-06-17T08:21:59.611Z,22.85
2018-06-17T08:24:28.182Z,22.97
2018-06-17T08:26:56.701Z,22.62
2018-06-17T08:29:25.346Z,22.98
2018-06-17T08:31:53.858Z,23.21
2018-06-17T08:34:22.130Z,23.13
2018-06-17T08:36:50.210Z,23.27
2018-06-17T08:39:19.486Z,23.16
2018-06-17T08:41:47.555Z,22.88
2018-06-17T08:44:16.296Z,23.04
2018-06-17T08:46:45.194Z,23.20
2018-06-17T08:49:13.678Z,23.30
2018-06-17T08:51:41.841Z,23.16
2018-06-17T08:54:09.932Z,22.81
2018-06-17T08:56:38.447Z,23.28
2018-06-17T08:59:06.558Z,23.30
2018-06-17T09:01:34.663Z,23.55
2018-06-17T09:04:02.757Z,23.45
2018-06-17T09:06:30.814Z,23.16
2018-06-17T09:08:59.057Z,23.37
2018-06-17T09:11:27.142Z,23.34
2018-06-17T09:13:55.803Z,23.43
2018-06-17T09:16:24.553Z,23.92
2018-06-17T09:18:53.123Z,23.72
2018-06-17T09:21:21.150Z,23.57
2018-06-17T09:23:49.207Z,23.49
2018-06-17T09:26:17.345Z,23.30
2018-06-17T09:28:45.530Z,23.46
2018-06-17T09:31:13.608Z,24.20
2018-06-17T09:33:42.894Z,24.19
2018-06-17T09:36:11.117Z,23.92
2018-06-17T09:38:39.410Z,23.91
2018-06-17T09:45:48.387Z,23.33
2018-06-17T09:48:17.092Z,23.99
2018-06-17T09:50:45.286Z,24.26
2018-06-17T09:53:13.381Z,24.74
2018-06-17T09:55:42.515Z,24.38
2018-06-17T09:58:10.704Z,23.97
2018-06-17T10:00:38.890Z,23.90
2018-06-17T10:03:06.920Z,24.09
2018-06-17T10:05:35.002Z,23.99
2018-06-17T10:08:03.099Z,24.11
2018-06-17T10:11:09.307Z,23.60
2018-06-17T10:13:40.727Z,23.67
2018-06-17T10:16:09.227Z,24.31
2018-06-17T10:18:37.286Z,24.68
2018-06-17T10:21:05.752Z,24.68
2018-06-17T10:23:33.837Z,24.58
2018-06-17T10:26:01.921Z,24.25
2018-06-17T10:28:32.163Z,24.29
2018-06-17T10:31:01.492Z,24.59
2018-06-17T10:33:29.704Z,24.39
2018-06-17T10:35:57.794Z,25.01
2018-06-17T10:38:26.302Z,25.27
2018-06-17T10:40:54.857Z,25.66
2018-06-17T10:43:24.836Z,25.52
2018-06-17T10:45:52.918Z,24.80
2018-06-17T10:48:21.243Z,24.95
2018-06-17T10:50:49.316Z,25.33
2018-06-17T10:53:17.368Z,25.57
2018-06-17T10:55:45.588Z,24.94
2018-06-17T10:58:13.581Z,24.60
2018-06-17T11:00:41.681Z,24.40
2018-06-17T11:03:09.804Z,24.29
2018-06-17T11:05:38.998Z,24.48
2018-06-17T11:08:06.969Z,24.15
2018-06-17T11:10:35.105Z,24.48
2018-06-17T11:13:03.317Z,25.00
2018-06-17T11:15:31.439Z,25.90
2018-06-17T11:17:59.514Z,25.79
2018-06-17T11:20:27.706Z,25.18
2018-06-17T11:22:56.009Z,25.44
2018-06-17T11:25:24.061Z,25.14
2018-06-17T11:27:52.274Z,24.81
2018-06-17T11:30:21.365Z,24.81
2018-06-17T11:32:49.479Z,24.88
2018-06-17T11:35:17.574Z,25.09
2018-06-17T11:37:45.635Z,24.99
2018-06-17T11:40:14.496Z,26.73
2018-06-17T11:42:43.005Z,25.87
2018-06-17T11:45:11.566Z,26.83
2018-06-17T11:47:39.693Z,26.61
2018-06-17T11:50:07.846Z,26.42
2018-06-17T11:52:35.995Z,25.53
2018-06-17T11:55:04.293Z,26.47
2018-06-17T11:57:32.383Z,27.44
2018-06-17T12:00:00.527Z,26.75
2018-06-17T12:02:28.642Z,26.42
2018-06-17T12:04:56.807Z,26.41
2018-06-17T12:07:25.079Z,28.66
2018-06-17T12:09:53.134Z,27.27
2018-06-17T12:12:21.313Z,28.04
2018-06-17T12:14:49.457Z,28.10
2018-06-17T12:17:17.568Z,28.43
2018-06-17T12:19:45.643Z,28.55
2018-06-17T12:22:13.784Z,28.34
2018-06-17T12:24:41.957Z,27.37
2018-06-17T12:27:10.046Z,27.86
2018-06-17T12:29:39.163Z,26.85
2018-06-17T12:32:07.270Z,26.65
2018-06-17T12:34:35.582Z,27.55
2018-06-17T12:37:03.822Z,27.68
2018-06-17T12:39:31.919Z,27.95
2018-06-17T12:42:00.171Z,27.18
2018-06-17T12:44:29.429Z,27.27
2018-06-17T12:46:57.495Z,27.76
2018-06-17T12:49:25.687Z,28.18
2018-06-17T12:51:53.814Z,27.54
2018-06-17T12:54:22.205Z,27.29
2018-06-17T12:56:50.259Z,27.29
2018-06-17T12:59:18.372Z,27.13
2018-06-17T13:01:46.617Z,27.92
2018-06-17T13:04:14.686Z,28.52
2018-06-17T13:06:42.857Z,29.26
2018-06-17T13:09:11.795Z,28.69
2018-06-17T13:11:40.026Z,28.42
2018-06-17T13:14:08.468Z,29.52
2018-06-17T13:16:36.752Z,29.78
2018-06-17T13:19:05.280Z,30.26
2018-06-17T13:21:33.666Z,31.54
2018-06-17T13:24:01.906Z,27.55
2018-06-17T13:26:30.196Z,28.80
2018-06-17T13:28:58.921Z,31.22
2018-06-17T13:31:27.000Z,31.55
2018-06-17T13:33:55.154Z,29.27
2018-06-17T13:36:23.278Z,30.26
2018-06-17T13:38:51.362Z,29.19
2018-06-17T13:41:19.542Z,28.83
2018-06-17T13:43:48.162Z,28.88
2018-06-17T13:46:16.325Z,28.52
2018-06-17T13:48:44.661Z,27.42
2018-06-17T13:51:13.966Z,27.24
2018-06-17T13:53:42.075Z,26.54
2018-06-17T13:56:10.294Z,27.27
2018-06-17T13:58:38.549Z,26.44
2018-06-17T14:01:06.698Z,27.37
2018-06-17T14:03:34.960Z,28.61
2018-06-17T14:06:03.001Z,27.84
2018-06-17T14:08:31.096Z,27.21
2018-06-17T14:10:59.346Z,26.84
2018-06-17T14:13:27.545Z,26.57
2018-06-17T14:15:55.537Z,25.59
2018-06-17T14:18:23.670Z,25.83
2018-06-17T14:20:51.779Z,25.42
2018-06-17T14:23:19.950Z,25.91
2018-06-17T14:25:48.025Z,26.29
2018-06-17T14:28:16.215Z,27.24
2018-06-17T14:30:44.435Z,26.51
2018-06-17T14:33:12.536Z,26.87
2018-06-17T14:35:40.637Z,26.08
2018-06-17T14:38:09.723Z,26.52
2018-06-17T14:40:43.125Z,26.71
2018-06-17T14:43:17.382Z,25.97
2018-06-17T14:45:50.927Z,26.00
2018-06-17T14:48:24.332Z,26.06
2018-06-17T14:50:58.705Z,26.30
2018-06-17T14:53:26.867Z,26.05
2018-06-17T14:55:54.975Z,26.16
2018-06-17T14:58:23.057Z,26.14
2018-06-17T15:00:51.149Z,26.23
2018-06-17T15:03:19.535Z,25.40
2018-06-17T15:05:47.650Z,25.52
2018-06-17T15:08:15.769Z,25.67
2018-06-17T15:10:43.901Z,25.71
2018-06-17T15:13:11.967Z,25.55
2018-06-17T15:15:40.101Z,25.55
2018-06-17T15:18:14.854Z,25.51
2018-06-17T15:20:42.850Z,25.80
2018-06-17T15:23:10.887Z,25.70
2018-06-17T15:25:39.958Z,26.81
2018-06-17T15:28:08.109Z,26.46
2018-06-17T15:30:36.175Z,25.87
2018-06-17T15:33:09.499Z,25.62
2018-06-17T15:35:43.106Z,25.26
2018-06-17T15:38:16.610Z,25.25
2018-06-17T15:40:50.097Z,24.99
2018-06-17T15:43:18.207Z,25.33
2018-06-17T15:45:46.492Z,25.08
2018-06-17T15:48:15.638Z,24.73
2018-06-17T15:50:43.838Z,24.36
2018-06-17T15:53:11.817Z,24.37
2018-06-17T15:55:40.092Z,24.43
2018-06-17T15:58:08.170Z,24.52
2018-06-17T16:00:36.659Z,24.38
2018-06-17T16:03:04.753Z,24.58
2018-06-17T16:05:32.871Z,24.24
2018-06-17T16:08:01.035Z,24.19
2018-06-17T16:10:29.624Z,24.15
2018-06-17T16:13:03.191Z,24.23
2018-06-17T16:15:36.782Z,24.06
2018-06-17T16:18:10.182Z,24.05
2018-06-17T16:20:43.710Z,24.12
2018-06-17T16:23:11.838Z,24.14
2018-06-17T16:25:40.578Z,24.18
2018-06-17T16:28:08.678Z,23.93
2018-06-17T16:30:36.727Z,24.08
2018-06-17T16:33:04.827Z,24.15
2018-06-17T16:35:32.878Z,23.86
2018-06-17T16:38:00.937Z,24.05
2018-06-17T16:40:29.077Z,24.36
2018-06-17T16:42:58.177Z,24.17
2018-06-17T16:45:26.447Z,24.03
2018-06-17T16:47:54.454Z,24.39
2018-06-17T16:50:22.640Z,24.19
2018-06-17T16:52:56.027Z,24.24
2018-06-17T16:55:29.484Z,23.96
2018-06-17T16:58:03.071Z,24.08
2018-06-17T17:00:31.209Z,23.93
2018-06-17T17:02:59.267Z,23.88
2018-06-17T17:05:27.651Z,23.62
2018-06-17T17:07:56.748Z,23.48
2018-06-17T17:10:24.831Z,23.35
2018-06-17T17:12:52.883Z,23.53
2018-06-17T17:15:21.007Z,23.84
2018-06-17T17:17:49.096Z,23.78
2018-06-17T17:20:17.354Z,23.58
2018-06-17T17:22:45.526Z,23.53
2018-06-17T17:25:13.690Z,23.71
2018-06-17T17:27:42.585Z,23.86
2018-06-17T17:30:10.858Z,23.63
2018-06-17T17:32:44.204Z,23.86
2018-06-17T17:35:17.634Z,23.93
2018-06-17T17:37:51.098Z,23.63
2018-06-17T17:40:24.528Z,23.48
2018-06-17T17:42:52.645Z,23.60
2018-06-17T17:45:22.810Z,23.30
2018-06-17T17:47:51.010Z,23.22
2018-06-17T17:50:19.057Z,23.32
2018-06-17T17:52:47.167Z,23.41
2018-06-17T17:55:15.411Z,23.34
2018-06-17T17:57:43.642Z,23.18
2018-06-17T18:00:11.707Z,23.40
2018-06-17T18:02:40.791Z,23.38
2018-06-17T18:05:09.149Z,23.52
2018-06-17T18:07:37.243Z,23.21
2018-06-17T18:10:05.359Z,23.09
2018-06-17T18:12:33.498Z,23.12
2018-06-17T18:15:01.659Z,23.31
2018-06-17T18:17:29.798Z,23.06
2018-06-17T18:19:57.917Z,23.11
2018-06-17T18:22:26.110Z,23.13
2018-06-17T18:24:59.656Z,22.92
2018-06-17T18:27:33.219Z,22.80
2018-06-17T18:30:06.773Z,22.89
2018-06-17T18:32:40.154Z,22.80
2018-06-17T18:35:13.693Z,22.62
2018-06-17T18:37:41.812Z,22.52
2018-06-17T18:40:10.968Z,22.66
2018-06-17T18:42:39.089Z,22.77
2018-06-17T18:45:07.243Z,22.78
2018-06-17T18:47:35.406Z,22.90
2018-06-17T18:50:03.452Z,22.76
2018-06-17T18:52:31.535Z,22.34
2018-06-17T18:54:59.629Z,22.34
2018-06-17T18:57:27.807Z,22.39
2018-06-17T18:59:56.122Z,22.48
2018-06-17T19:02:24.175Z,22.48
2018-06-17T19:04:52.719Z,22.44
2018-06-17T19:07:20.873Z,22.39
2018-06-17T19:09:54.383Z,22.44
2018-06-17T19:12:27.827Z,22.44
2018-06-17T19:15:01.412Z,22.16
2018-06-17T19:17:36.294Z,22.16
2018-06-17T19:20:04.568Z,22.11
2018-06-17T19:22:32.710Z,22.20
2018-06-17T19:25:00.783Z,21.88
2018-06-17T19:27:28.958Z,21.85
2018-06-17T19:29:57.159Z,21.81
2018-06-17T19:32:25.543Z,21.79
2018-06-17T19:34:53.725Z,21.85
2018-06-17T19:37:22.803Z,21.64
2018-06-17T19:39:50.860Z,21.59
2018-06-17T19:42:18.950Z,21.55
2018-06-17T19:44:47.011Z,21.45
2018-06-17T19:47:15.172Z,21.50
2018-06-17T19:49:48.644Z,21.48
2018-06-17T19:52:21.970Z,21.52
2018-06-17T19:54:55.378Z,21.48
2018-06-17T19:57:29.410Z,21.49
2018-06-17T20:00:02.918Z,21.51
2018-06-17T20:02:31.127Z,21.58
2018-06-17T20:04:59.181Z,21.33
2018-06-17T20:07:27.356Z,21.33
2018-06-17T20:09:55.432Z,21.29
2018-06-17T20:12:23.539Z,21.28
2018-06-17T20:14:52.178Z,21.35
2018-06-17T20:17:21.115Z,21.38
2018-06-17T20:19:49.128Z,21.38
2018-06-17T20:22:17.271Z,21.58
2018-06-17T20:24:45.343Z,21.46
2018-06-17T20:27:13.548Z,21.65
2018-06-17T20:29:41.697Z,21.56
2018-06-17T20:32:15.334Z,21.33
2018-06-17T20:34:48.800Z,21.22
2018-06-17T20:37:22.790Z,21.36
2018-06-17T20:40:55.818Z,21.27
2018-06-17T20:43:29.675Z,21.15
2018-06-17T20:45:58.107Z,21.39
2018-06-17T20:48:26.170Z,21.29
2018-06-17T20:50:54.635Z,21.36
2018-06-17T20:53:22.960Z,21.00
2018-06-17T20:55:51.010Z,20.93
2018-06-17T20:58:19.194Z,20.93
2018-06-17T21:00:47.264Z,20.94
2018-06-17T21:03:15.372Z,20.74
2018-06-17T21:05:43.459Z,20.74
2018-06-17T21:08:11.540Z,20.72
2018-06-17T21:10:39.760Z,20.69
2018-06-17T21:13:07.822Z,20.64
2018-06-17T21:15:35.877Z,20.73
2018-06-17T21:18:04.571Z,20.60
2018-06-17T21:20:37.853Z,20.74
2018-06-17T21:23:11.195Z,20.60
2018-06-17T21:25:44.751Z,20.50
2018-06-17T21:28:14.020Z,20.31
2018-06-17T21:30:42.157Z,20.35
2018-06-17T21:33:10.395Z,20.52
2018-06-17T21:35:38.632Z,20.38
2018-06-17T21:38:06.784Z,20.19
2018-06-17T21:40:34.848Z,20.38
2018-06-17T21:43:03.070Z,20.27
2018-06-17T21:45:31.367Z,20.44
2018-06-17T21:47:59.451Z,20.34
2018-06-17T21:50:27.669Z,20.34
2018-06-17T21:52:55.709Z,20.47
2018-06-17T21:55:23.773Z,20.38
2018-06-17T21:57:51.934Z,20.56
2018-06-17T22:00:20.154Z,20.61
2018-06-17T22:02:48.207Z,20.26
2018-06-17T22:05:16.263Z,20.55
2018-06-17T22:07:49.739Z,20.84
2018-06-17T22:10:23.319Z,20.62
2018-06-17T22:12:56.801Z,20.46
2018-06-17T22:15:30.239Z,20.52
2018-06-17T22:17:58.335Z,20.60
2018-06-17T22:20:26.379Z,20.38
2018-06-17T22:22:54.419Z,20.34
2018-06-17T22:25:22.475Z,20.37
2018-06-17T22:27:50.586Z,20.35
2018-06-17T22:30:18.655Z,20.38
2018-06-17T22:32:46.889Z,20.33
2018-06-17T22:35:15.063Z,20.34
2018-06-17T22:37:43.107Z,19.93
2018-06-17T22:40:12.090Z,20.17
2018-06-17T22:42:40.398Z,20.01
2018-06-17T22:45:08.665Z,20.06
2018-06-17T22:47:42.331Z,20.16
2018-06-17T22:50:10.621Z,20.09
2018-06-17T22:52:51.127Z,19.99
2018-06-17T22:55:19.259Z,19.89
2018-06-17T22:57:52.715Z,19.85
2018-06-17T23:00:26.247Z,19.87
2018-06-17T23:02:59.791Z,19.93
2018-06-17T23:05:33.119Z,19.85
2018-06-17T23:08:06.555Z,19.95
2018-06-17T23:10:34.741Z,19.87
2018-06-17T23:13:02.840Z,19.62
2018-06-17T23:15:31.276Z,19.70
2018-06-17T23:17:59.389Z,19.70
2018-06-17T23:20:27.630Z,19.72
2018-06-17T23:22:56.077Z,19.69
2018-06-17T23:25:24.279Z,19.69
2018-06-17T23:27:52.439Z,19.53
2018-06-17T23:30:20.694Z,19.64
2018-06-17T23:32:48.776Z,19.62
2018-06-17T23:35:17.057Z,19.49
2018-06-17T23:37:45.299Z,19.55
2018-06-17T23:40:13.617Z,19.54
2018-06-17T23:42:42.234Z,19.51
2018-06-17T23:45:10.526Z,19.62
2018-06-17T23:47:44.140Z,19.64
2018-06-17T23:50:17.628Z,19.56
2018-06-17T23:52:51.020Z,19.71
2018-06-17T23:55:24.433Z,19.79
2018-06-17T23:57:52.751Z,19.76
